Time;durP1;ratioP1;P1;durP2;ratioP2;P2;SDS_P1;SDS_P2;PMS_P1;PMS_P2;Temp;Humidity;BMP_temperature;BMP_pressure;BME280_temperature;BME280_humidity;BME280_pressure;Samples;Min_cycle;Max_cycle;Signal;HPM_P1;HPM_P2
2023/08/10 00:00:11;;;;;;;0.00;0.00;;;;;;;;;;1733905;28;20548;-79
2023/08/10 00:01:02;;;;;;;0.00;0.00;;;;;;;;;;1735497;28;20242;-79
2023/08/10 00:01:53;;;;;;;0.00;0.00;;;;;;;;;;1736985;28;20204;-79
2023/08/10 00:02:45;;;;;;;0.00;0.00;;;;;;;;;;1737016;28;20219;-79
2023/08/10 00:03:37;;;;;;;0.00;0.00;;;;;;;;;;1737556;28;20214;-79
2023/08/10 00:04:28;;;;;;;0.00;0.00;;;;;;;;;;1737257;28;20203;-79
2023/08/10 00:05:21;;;;;;;0.00;0.00;;;;;;;;;;1733837;28;20191;-80
2023/08/10 00:06:12;;;;;;;0.00;0.00;;;;;;;;;;1734283;28;20548;-80
2023/08/10 00:07:04;;;;;;;0.00;0.00;;;;;;;;;;1734064;28;20269;-79
2023/08/10 00:07:55;;;;;;;0.00;0.00;;;;;;;;;;1734366;28;20204;-80
2023/08/10 00:08:47;;;;;;;0.00;0.00;;;;;;;;;;1732663;28;20203;-80
2023/08/10 00:09:38;;;;;;;0.00;0.00;;;;;;;;;;1733917;28;20640;-80
2023/08/10 00:10:30;;;;;;;0.00;0.00;;;;;;;;;;1731791;28;20299;-80
2023/08/10 00:11:23;;;;;;;0.00;0.00;;;;;;;;;;1734100;28;20600;-79
2023/08/10 00:12:14;;;;;;;0.00;0.00;;;;;;;;;;1733975;28;20230;-80
2023/08/10 00:13:05;;;;;;;0.00;0.00;;;;;;;;;;1733374;28;20210;-78
2023/08/10 00:13:57;;;;;;;0.00;0.00;;;;;;;;;;1733705;28;20309;-78
2023/08/10 00:14:48;;;;;;;0.00;0.00;;;;;;;;;;1733468;28;20397;-78
2023/08/10 00:15:40;;;;;;;0.00;0.00;;;;;;;;;;1734571;28;20291;-79
2023/08/10 00:16:31;;;;;;;0.00;0.00;;;;;;;;;;1735871;28;20241;-78
2023/08/10 00:17:22;;;;;;;0.00;0.00;;;;;;;;;;1736960;28;20238;-78
2023/08/10 00:18:15;;;;;;;0.00;0.00;;;;;;;;;;1736732;28;20511;-78
2023/08/10 00:19:06;;;;;;;0.00;0.00;;;;;;;;;;1736359;28;20581;-81
2023/08/10 00:19:57;;;;;;;0.00;0.00;;;;;;;;;;1736240;28;20204;-78
2023/08/10 00:20:49;;;;;;;0.00;0.00;;;;;;;;;;1735987;28;20227;-79
2023/08/10 00:21:40;;;;;;;0.00;0.00;;;;;;;;;;1736609;28;20223;-79
2023/08/10 00:22:31;;;;;;;0.00;0.00;;;;;;;;;;1737750;28;20207;-79
2023/08/10 00:23:23;;;;;;;0.00;0.00;;;;;;;;;;1740453;28;20199;-79
2023/08/10 00:24:14;;;;;;;0.00;0.00;;;;;;;;;;1744125;28;20225;-79
2023/08/10 00:25:07;;;;;;;0.00;0.00;;;;;;;;;;1740141;28;20195;-79
2023/08/10 00:25:58;;;;;;;0.00;0.00;;;;;;;;;;1736794;28;20310;-79
2023/08/10 00:26:52;;;;;;;0.00;0.00;;;;;;;;;;1738886;28;20219;-79
2023/08/10 00:27:43;;;;;;;0.00;0.00;;;;;;;;;;1738118;28;20239;-79
2023/08/10 00:28:35;;;;;;;0.00;0.00;;;;;;;;;;1737799;28;20657;-78
2023/08/10 00:29:26;;;;;;;0.00;0.00;;;;;;;;;;1744425;28;20293;-79
2023/08/10 00:30:18;;;;;;;0.00;0.00;;;;;;;;;;1728020;28;20204;-79
2023/08/10 00:31:09;;;;;;;0.00;0.00;;;;;;;;;;1732899;28;20315;-79
2023/08/10 00:32:01;;;;;;;0.10;0.10;;;;;;;;;;1733064;28;20226;-79
2023/08/10 00:32:52;;;;;;;0.00;0.00;;;;;;;;;;1733678;28;20258;-79
2023/08/10 00:33:44;;;;;;;0.00;0.00;;;;;;;;;;1732939;28;20298;-79
2023/08/10 00:34:36;;;;;;;0.00;0.00;;;;;;;;;;1733632;28;20199;-79
2023/08/10 00:35:27;;;;;;;0.00;0.00;;;;;;;;;;1732413;28;20274;-79
2023/08/10 00:36:19;;;;;;;0.00;0.00;;;;;;;;;;1733258;28;20238;-79
2023/08/10 00:37:10;;;;;;;0.00;0.00;;;;;;;;;;1732966;28;20250;-79
2023/08/10 00:38:01;;;;;;;0.00;0.00;;;;;;;;;;1732873;28;20200;-79
2023/08/10 00:38:53;;;;;;;0.00;0.00;;;;;;;;;;1733384;28;20231;-79
2023/08/10 00:39:44;;;;;;;0.00;0.00;;;;;;;;;;1732713;28;20208;-79
2023/08/10 00:40:35;;;;;;;0.00;0.00;;;;;;;;;;1732563;28;20664;-79
2023/08/10 00:41:28;;;;;;;0.00;0.00;;;;;;;;;;1732893;28;20180;-79
2023/08/10 00:42:21;;;;;;;0.00;0.00;;;;;;;;;;1733000;28;20203;-79
2023/08/10 00:43:12;;;;;;;0.00;0.00;;;;;;;;;;1732879;28;20207;-79
2023/08/10 00:44:04;;;;;;;0.00;0.00;;;;;;;;;;1733124;28;20496;-80
2023/08/10 00:44:55;;;;;;;0.00;0.00;;;;;;;;;;1732554;28;20200;-79
2023/08/10 00:45:47;;;;;;;0.00;0.00;;;;;;;;;;1732241;28;20314;-79
2023/08/10 00:46:38;;;;;;;0.00;0.00;;;;;;;;;;1732845;28;20266;-79
2023/08/10 00:47:30;;;;;;;0.00;0.00;;;;;;;;;;1733526;28;20266;-80
2023/08/10 00:48:22;;;;;;;0.00;0.00;;;;;;;;;;1732941;28;20657;-79
2023/08/10 00:49:14;;;;;;;0.00;0.00;;;;;;;;;;1733514;28;20552;-79
2023/08/10 00:50:06;;;;;;;0.00;0.00;;;;;;;;;;1733310;28;20244;-79
2023/08/10 00:50:58;;;;;;;0.00;0.00;;;;;;;;;;1732317;28;20756;-81
2023/08/10 00:51:49;;;;;;;0.00;0.00;;;;;;;;;;1732706;28;20322;-79
2023/08/10 00:52:41;;;;;;;0.00;0.00;;;;;;;;;;1727846;28;20204;-78
2023/08/10 00:53:32;;;;;;;0.00;0.00;;;;;;;;;;1728812;28;20291;-80
2023/08/10 00:54:24;;;;;;;0.00;0.00;;;;;;;;;;1726823;28;20200;-80
2023/08/10 00:55:15;;;;;;;0.00;0.00;;;;;;;;;;1727011;28;20647;-79
2023/08/10 00:56:07;;;;;;;0.00;0.00;;;;;;;;;;1735863;28;20553;-79
2023/08/10 00:56:59;;;;;;;0.00;0.00;;;;;;;;;;1733655;28;20195;-78
2023/08/10 00:57:51;;;;;;;0.00;0.00;;;;;;;;;;1729071;28;20212;-78
2023/08/10 00:58:42;;;;;;;0.00;0.00;;;;;;;;;;1728898;28;20211;-78
2023/08/10 00:59:35;;;;;;;0.00;0.00;;;;;;;;;;1728797;28;20204;-78
2023/08/10 01:00:27;;;;;;;0.10;0.10;;;;;;;;;;1726133;28;20208;-78
2023/08/10 01:01:19;;;;;;;0.10;0.10;;;;;;;;;;1734913;28;20217;-78
2023/08/10 01:02:10;;;;;;;0.00;0.00;;;;;;;;;;1733638;28;20673;-80
2023/08/10 01:03:01;;;;;;;0.00;0.00;;;;;;;;;;1732202;28;20230;-79
2023/08/10 01:03:53;;;;;;;0.00;0.00;;;;;;;;;;1730430;28;20262;-79
2023/08/10 01:04:44;;;;;;;0.00;0.00;;;;;;;;;;1729049;28;20210;-79
2023/08/10 01:05:42;;;;;;;0.00;0.00;;;;;;;;;;1728151;28;20211;-79
2023/08/10 01:06:39;;;;;;;0.00;0.00;;;;;;;;;;1735016;28;20246;-79
2023/08/10 01:07:35;;;;;;;0.00;0.00;;;;;;;;;;1728978;28;20196;-78
2023/08/10 01:08:28;;;;;;;0.00;0.00;;;;;;;;;;1728034;28;20198;-79
2023/08/10 01:09:23;;;;;;;0.00;0.00;;;;;;;;;;1731656;28;20196;-79
2023/08/10 01:10:18;;;;;;;0.00;0.00;;;;;;;;;;1731481;28;20573;-79
2023/08/10 01:11:15;;;;;;;0.00;0.00;;;;;;;;;;1734033;28;20251;-79
2023/08/10 01:12:09;;;;;;;0.00;0.00;;;;;;;;;;1732056;28;20288;-79
2023/08/10 01:13:06;;;;;;;0.00;0.00;;;;;;;;;;1734389;28;20598;-79
2023/08/10 01:14:04;;;;;;;0.00;0.00;;;;;;;;;;1730511;28;20213;-79
2023/08/10 01:14:59;;;;;;;0.00;0.00;;;;;;;;;;1730100;28;20204;-79
2023/08/10 01:15:54;;;;;;;0.00;0.00;;;;;;;;;;1727721;28;20236;-80
2023/08/10 01:16:47;;;;;;;0.00;0.00;;;;;;;;;;1730404;28;20269;-79
2023/08/10 01:17:39;;;;;;;0.00;0.00;;;;;;;;;;1726839;28;20200;-78
2023/08/10 01:18:32;;;;;;;0.00;0.00;;;;;;;;;;1726033;28;20220;-78
2023/08/10 01:19:26;;;;;;;0.00;0.00;;;;;;;;;;1726089;28;20645;-78
2023/08/10 01:20:19;;;;;;;0.00;0.00;;;;;;;;;;1726941;28;20204;-78
2023/08/10 01:21:16;;;;;;;0.00;0.00;;;;;;;;;;1727601;28;20232;-78
2023/08/10 01:22:13;;;;;;;0.00;0.00;;;;;;;;;;1729503;28;20713;-78
2023/08/10 01:23:11;;;;;;;0.00;0.00;;;;;;;;;;1731680;28;20187;-78
2023/08/10 01:24:04;;;;;;;0.00;0.00;;;;;;;;;;1725879;28;20201;-78
2023/08/10 01:25:06;;;;;;;0.00;0.00;;;;;;;;;;1729040;28;20242;-78
2023/08/10 01:25:57;;;;;;;0.00;0.00;;;;;;;;;;1724556;28;20236;-79
2023/08/10 01:26:51;;;;;;;0.00;0.00;;;;;;;;;;1727846;28;20217;-78
2023/08/10 01:27:42;;;;;;;0.00;0.00;;;;;;;;;;1727304;28;20661;-79
2023/08/10 01:28:34;;;;;;;0.00;0.00;;;;;;;;;;1727740;28;20204;-79
2023/08/10 01:29:26;;;;;;;0.00;0.00;;;;;;;;;;1726284;28;20421;-79
2023/08/10 01:30:17;;;;;;;0.00;0.00;;;;;;;;;;1724936;28;20213;-79
2023/08/10 01:31:09;;;;;;;0.00;0.00;;;;;;;;;;1730377;28;20589;-79
2023/08/10 01:32:00;;;;;;;0.00;0.00;;;;;;;;;;1728754;28;20740;-79
2023/08/10 01:32:51;;;;;;;0.00;0.00;;;;;;;;;;1728146;28;20303;-78
2023/08/10 01:33:43;;;;;;;0.00;0.00;;;;;;;;;;1725999;28;20519;-79
2023/08/10 01:34:34;;;;;;;0.00;0.00;;;;;;;;;;1727043;28;20728;-80
2023/08/10 01:35:26;;;;;;;0.00;0.00;;;;;;;;;;1727387;28;20234;-80
2023/08/10 01:36:18;;;;;;;0.00;0.00;;;;;;;;;;1734577;28;20234;-80
2023/08/10 01:37:09;;;;;;;0.00;0.00;;;;;;;;;;1732742;28;20253;-79
2023/08/10 01:38:01;;;;;;;0.00;0.00;;;;;;;;;;1732010;28;20526;-79
2023/08/10 01:38:52;;;;;;;0.00;0.00;;;;;;;;;;1731400;28;20653;-79
2023/08/10 01:39:44;;;;;;;0.00;0.00;;;;;;;;;;1735365;28;20238;-79
2023/08/10 01:40:36;;;;;;;0.00;0.00;;;;;;;;;;1728721;28;20489;-80
2023/08/10 01:41:27;;;;;;;0.00;0.00;;;;;;;;;;1724624;28;20201;-79
2023/08/10 01:42:20;;;;;;;0.00;0.00;;;;;;;;;;1729495;28;20508;-79
2023/08/10 01:43:11;;;;;;;0.00;0.00;;;;;;;;;;1732280;28;20640;-79
2023/08/10 01:44:03;;;;;;;0.00;0.00;;;;;;;;;;1732858;28;20238;-79
2023/08/10 01:44:55;;;;;;;0.00;0.00;;;;;;;;;;1733833;28;20218;-79
2023/08/10 01:45:49;;;;;;;0.00;0.00;;;;;;;;;;1727169;28;20394;-80
2023/08/10 01:46:41;;;;;;;0.00;0.00;;;;;;;;;;1729471;28;20232;-80
2023/08/10 01:47:35;;;;;;;0.00;0.00;;;;;;;;;;1728382;28;20303;-80
2023/08/10 01:48:28;;;;;;;0.00;0.00;;;;;;;;;;1725936;28;20299;-80
2023/08/10 01:49:21;;;;;;;0.00;0.00;;;;;;;;;;1732277;28;20231;-81
2023/08/10 01:50:14;;;;;;;0.00;0.00;;;;;;;;;;1727978;28;20228;-79
2023/08/10 01:51:07;;;;;;;0.00;0.00;;;;;;;;;;1732269;28;20234;-79
2023/08/10 01:52:01;;;;;;;0.00;0.00;;;;;;;;;;1732827;28;20326;-79
2023/08/10 01:52:55;;;;;;;0.10;0.10;;;;;;;;;;1735406;28;20202;-79
2023/08/10 01:53:48;;;;;;;0.00;0.00;;;;;;;;;;1735593;28;20210;-79
2023/08/10 01:54:39;;;;;;;0.00;0.00;;;;;;;;;;1735565;28;20257;-79
2023/08/10 01:55:32;;;;;;;0.00;0.00;;;;;;;;;;1733500;28;20269;-80
2023/08/10 01:56:24;;;;;;;0.00;0.00;;;;;;;;;;1732942;28;20246;-80
2023/08/10 01:57:15;;;;;;;0.00;0.00;;;;;;;;;;1732322;28;20656;-80
2023/08/10 01:58:07;;;;;;;0.00;0.00;;;;;;;;;;1730306;28;20237;-80
2023/08/10 01:58:58;;;;;;;0.00;0.00;;;;;;;;;;1733399;28;20251;-80
2023/08/10 01:59:51;;;;;;;0.00;0.00;;;;;;;;;;1732755;28;20265;-80
2023/08/10 02:00:42;;;;;;;0.00;0.00;;;;;;;;;;1732011;28;20255;-80
2023/08/10 02:01:34;;;;;;;0.00;0.00;;;;;;;;;;1732996;28;20586;-80
2023/08/10 02:02:25;;;;;;;0.00;0.00;;;;;;;;;;1732953;28;20716;-80
2023/08/10 02:03:17;;;;;;;0.00;0.00;;;;;;;;;;1732249;28;20287;-80
2023/08/10 02:04:08;;;;;;;0.00;0.00;;;;;;;;;;1733128;28;20669;-80
2023/08/10 02:04:59;;;;;;;0.00;0.00;;;;;;;;;;1732401;28;20606;-80
2023/08/10 02:05:51;;;;;;;0.00;0.00;;;;;;;;;;1734993;28;20232;-79
2023/08/10 02:06:42;;;;;;;0.00;0.00;;;;;;;;;;1734597;28;20472;-79
2023/08/10 02:07:33;;;;;;;0.00;0.00;;;;;;;;;;1735548;28;20593;-79
2023/08/10 02:08:25;;;;;;;0.00;0.00;;;;;;;;;;1735088;28;20196;-79
2023/08/10 02:09:16;;;;;;;0.00;0.00;;;;;;;;;;1735605;28;20535;-79
2023/08/10 02:10:09;;;;;;;0.00;0.00;;;;;;;;;;1735579;28;20211;-79
2023/08/10 02:11:01;;;;;;;0.00;0.00;;;;;;;;;;1733486;28;20680;-79
2023/08/10 02:11:54;;;;;;;0.00;0.00;;;;;;;;;;1734882;28;20680;-79
2023/08/10 02:12:46;;;;;;;0.00;0.00;;;;;;;;;;1736026;28;20215;-79
2023/08/10 02:13:37;;;;;;;0.00;0.00;;;;;;;;;;1736762;28;20199;-79
2023/08/10 02:14:28;;;;;;;0.00;0.00;;;;;;;;;;1736221;28;20200;-79
2023/08/10 02:15:20;;;;;;;0.00;0.00;;;;;;;;;;1733411;28;20203;-79
2023/08/10 02:16:11;;;;;;;0.10;0.10;;;;;;;;;;1733129;28;20265;-79
2023/08/10 02:17:03;;;;;;;0.00;0.00;;;;;;;;;;1732774;28;20238;-79
2023/08/10 02:17:55;;;;;;;0.00;0.00;;;;;;;;;;1732727;28;20303;-80
2023/08/10 02:18:46;;;;;;;0.00;0.00;;;;;;;;;;1732740;28;20206;-79
2023/08/10 02:19:38;;;;;;;0.00;0.00;;;;;;;;;;1732928;28;20708;-79
2023/08/10 02:20:29;;;;;;;0.00;0.00;;;;;;;;;;1734322;28;20258;-79
2023/08/10 02:21:23;;;;;;;0.00;0.00;;;;;;;;;;1735380;28;20287;-79
2023/08/10 02:22:15;;;;;;;0.00;0.00;;;;;;;;;;1735494;28;20235;-78
2023/08/10 02:23:06;;;;;;;0.00;0.00;;;;;;;;;;1735448;28;20203;-78
2023/08/10 02:23:58;;;;;;;0.00;0.00;;;;;;;;;;1735993;28;20234;-78
2023/08/10 02:24:50;;;;;;;0.00;0.00;;;;;;;;;;1735724;28;20531;-79
2023/08/10 02:25:41;;;;;;;0.00;0.00;;;;;;;;;;1731979;28;20327;-79
2023/08/10 02:26:32;;;;;;;0.00;0.00;;;;;;;;;;1732489;28;20294;-79
2023/08/10 02:27:25;;;;;;;0.00;0.00;;;;;;;;;;1732779;28;20675;-80
2023/08/10 02:28:16;;;;;;;0.00;0.00;;;;;;;;;;1732066;28;21319;-79
2023/08/10 02:29:08;;;;;;;0.00;0.00;;;;;;;;;;1732839;28;20579;-79
2023/08/10 02:29:59;;;;;;;0.00;0.00;;;;;;;;;;1731886;28;20290;-79
2023/08/10 02:30:51;;;;;;;0.00;0.00;;;;;;;;;;1734458;28;20676;-79
2023/08/10 02:31:43;;;;;;;0.00;0.00;;;;;;;;;;1734885;28;20195;-79
2023/08/10 02:32:34;;;;;;;0.00;0.00;;;;;;;;;;1735606;28;20214;-79
2023/08/10 02:33:25;;;;;;;0.00;0.00;;;;;;;;;;1735425;28;20196;-78
2023/08/10 02:34:17;;;;;;;0.00;0.00;;;;;;;;;;1734632;28;20206;-78
2023/08/10 02:35:09;;;;;;;0.00;0.00;;;;;;;;;;1736104;28;20660;-79
2023/08/10 02:36:01;;;;;;;0.00;0.00;;;;;;;;;;1733664;28;20239;-79
2023/08/10 02:36:52;;;;;;;0.00;0.00;;;;;;;;;;1734701;28;20203;-79
2023/08/10 02:37:43;;;;;;;0.00;0.00;;;;;;;;;;1735520;28;20199;-79
2023/08/10 02:38:35;;;;;;;0.00;0.00;;;;;;;;;;1734308;28;20200;-79
2023/08/10 02:39:26;;;;;;;0.00;0.00;;;;;;;;;;1735772;28;20620;-78
2023/08/10 02:40:18;;;;;;;0.00;0.00;;;;;;;;;;1733104;28;20227;-78
2023/08/10 02:41:09;;;;;;;0.00;0.00;;;;;;;;;;1735527;28;20223;-78
2023/08/10 02:42:02;;;;;;;0.00;0.00;;;;;;;;;;1734836;28;20200;-78
2023/08/10 02:42:55;;;;;;;0.00;0.00;;;;;;;;;;1735240;28;20289;-78
2023/08/10 02:43:47;;;;;;;0.00;0.00;;;;;;;;;;1734825;28;20533;-78
2023/08/10 02:44:38;;;;;;;0.00;0.00;;;;;;;;;;1735213;28;20485;-78
2023/08/10 02:45:30;;;;;;;0.00;0.00;;;;;;;;;;1732356;28;20570;-78
2023/08/10 02:46:21;;;;;;;0.00;0.00;;;;;;;;;;1735091;28;20318;-78
2023/08/10 02:47:13;;;;;;;0.00;0.00;;;;;;;;;;1734244;28;20206;-78
2023/08/10 02:48:05;;;;;;;0.00;0.00;;;;;;;;;;1734724;28;20760;-78
2023/08/10 02:48:57;;;;;;;0.00;0.00;;;;;;;;;;1733912;28;20239;-78
2023/08/10 02:49:48;;;;;;;0.00;0.00;;;;;;;;;;1733906;28;20250;-78
2023/08/10 02:50:39;;;;;;;0.00;0.00;;;;;;;;;;1733115;28;20234;-78
2023/08/10 02:51:31;;;;;;;0.00;0.00;;;;;;;;;;1734234;28;20288;-78
2023/08/10 02:52:23;;;;;;;0.00;0.00;;;;;;;;;;1733821;28;20235;-78
2023/08/10 02:53:15;;;;;;;0.00;0.00;;;;;;;;;;1734160;28;20227;-78
2023/08/10 02:54:06;;;;;;;0.00;0.00;;;;;;;;;;1734512;28;20238;-78
2023/08/10 02:54:57;;;;;;;0.00;0.00;;;;;;;;;;1733277;28;20576;-78
2023/08/10 02:55:49;;;;;;;0.00;0.00;;;;;;;;;;1733194;28;20232;-78
2023/08/10 02:56:40;;;;;;;0.00;0.00;;;;;;;;;;1734318;28;20242;-78
2023/08/10 02:57:31;;;;;;;0.00;0.00;;;;;;;;;;1734008;28;20200;-78
2023/08/10 02:58:24;;;;;;;0.00;0.00;;;;;;;;;;1734701;28;20200;-78
2023/08/10 02:59:15;;;;;;;0.00;0.00;;;;;;;;;;1734364;28;20611;-78
2023/08/10 03:00:07;;;;;;;0.00;0.00;;;;;;;;;;1734338;28;20196;-78
2023/08/10 03:01:00;;;;;;;0.00;0.00;;;;;;;;;;1733077;28;20249;-78
2023/08/10 03:01:51;;;;;;;0.00;0.00;;;;;;;;;;1734270;28;20214;-78
2023/08/10 03:02:43;;;;;;;0.00;0.00;;;;;;;;;;1734467;28;20576;-78
2023/08/10 03:03:35;;;;;;;0.00;0.00;;;;;;;;;;1734459;28;20204;-78
2023/08/10 03:04:26;;;;;;;0.00;0.00;;;;;;;;;;1734480;28;20231;-78
2023/08/10 03:05:18;;;;;;;0.00;0.00;;;;;;;;;;1732873;28;20235;-78
2023/08/10 03:06:10;;;;;;;0.00;0.00;;;;;;;;;;1734451;28;20227;-78
2023/08/10 03:07:02;;;;;;;0.00;0.00;;;;;;;;;;1734047;28;20230;-78
2023/08/10 03:07:53;;;;;;;0.00;0.00;;;;;;;;;;1734295;28;20222;-78
2023/08/10 03:08:45;;;;;;;0.00;0.00;;;;;;;;;;1734066;28;20207;-78
2023/08/10 03:09:37;;;;;;;0.00;0.00;;;;;;;;;;1734697;28;20227;-78
2023/08/10 03:10:28;;;;;;;0.00;0.00;;;;;;;;;;1732771;28;20195;-79
2023/08/10 03:11:20;;;;;;;0.00;0.00;;;;;;;;;;1732655;28;20200;-79
2023/08/10 03:12:12;;;;;;;0.00;0.00;;;;;;;;;;1732387;28;20294;-79
2023/08/10 03:13:04;;;;;;;0.00;0.00;;;;;;;;;;1732474;28;20261;-78
2023/08/10 03:13:57;;;;;;;0.00;0.00;;;;;;;;;;1732870;28;20331;-79
2023/08/10 03:14:49;;;;;;;0.00;0.00;;;;;;;;;;1732543;28;20210;-79
2023/08/10 03:15:40;;;;;;;0.00;0.00;;;;;;;;;;1733314;28;20235;-79
2023/08/10 03:16:33;;;;;;;0.00;0.00;;;;;;;;;;1733574;28;20227;-79
2023/08/10 03:17:24;;;;;;;0.00;0.00;;;;;;;;;;1734649;28;20617;-79
2023/08/10 03:18:16;;;;;;;0.00;0.00;;;;;;;;;;1733337;28;20206;-79
2023/08/10 03:19:08;;;;;;;0.00;0.00;;;;;;;;;;1735722;28;20223;-79
2023/08/10 03:19:59;;;;;;;0.00;0.00;;;;;;;;;;1735494;28;20248;-79
2023/08/10 03:20:50;;;;;;;0.00;0.00;;;;;;;;;;1734748;28;20306;-78
2023/08/10 03:21:42;;;;;;;0.00;0.00;;;;;;;;;;1735660;28;20214;-78
2023/08/10 03:22:33;;;;;;;0.00;0.00;;;;;;;;;;1735418;28;20263;-78
2023/08/10 03:23:24;;;;;;;0.00;0.00;;;;;;;;;;1735281;28;20204;-78
2023/08/10 03:24:16;;;;;;;0.00;0.00;;;;;;;;;;1735756;28;20261;-78
2023/08/10 03:25:08;;;;;;;0.00;0.00;;;;;;;;;;1736217;28;20223;-78
2023/08/10 03:26:00;;;;;;;0.00;0.00;;;;;;;;;;1732507;28;20665;-78
2023/08/10 03:26:51;;;;;;;0.00;0.00;;;;;;;;;;1733289;28;20640;-79
2023/08/10 03:27:42;;;;;;;0.00;0.00;;;;;;;;;;1733961;28;20257;-78
2023/08/10 03:28:34;;;;;;;0.00;0.00;;;;;;;;;;1733352;28;20192;-79
2023/08/10 03:29:26;;;;;;;0.00;0.00;;;;;;;;;;1733994;28;20208;-79
2023/08/10 03:30:19;;;;;;;0.00;0.00;;;;;;;;;;1732418;28;20204;-79
2023/08/10 03:31:12;;;;;;;0.00;0.00;;;;;;;;;;1734113;28;20203;-79
2023/08/10 03:32:04;;;;;;;0.00;0.00;;;;;;;;;;1733501;28;20204;-79
2023/08/10 03:32:55;;;;;;;0.00;0.00;;;;;;;;;;1733599;28;20549;-79
2023/08/10 03:33:46;;;;;;;0.00;0.00;;;;;;;;;;1733453;28;20215;-78
2023/08/10 03:34:38;;;;;;;0.00;0.00;;;;;;;;;;1733637;28;20208;-79
2023/08/10 03:35:29;;;;;;;0.00;0.00;;;;;;;;;;1732598;28;20204;-79
2023/08/10 03:36:21;;;;;;;0.00;0.00;;;;;;;;;;1733374;28;20210;-79
2023/08/10 03:37:12;;;;;;;0.00;0.00;;;;;;;;;;1733266;28;20223;-79
2023/08/10 03:38:04;;;;;;;0.00;0.00;;;;;;;;;;1733358;28;20659;-79
2023/08/10 03:38:55;;;;;;;0.00;0.00;;;;;;;;;;1733294;28;20215;-79
2023/08/10 03:39:47;;;;;;;0.00;0.00;;;;;;;;;;1733408;28;20237;-80
2023/08/10 03:40:38;;;;;;;0.00;0.00;;;;;;;;;;1735615;28;20211;-80
2023/08/10 03:41:30;;;;;;;0.00;0.00;;;;;;;;;;1737712;28;20192;-80
2023/08/10 03:42:22;;;;;;;0.00;0.00;;;;;;;;;;1738221;28;20246;-80
2023/08/10 03:43:13;;;;;;;0.00;0.00;;;;;;;;;;1737600;28;20222;-80
2023/08/10 03:44:05;;;;;;;0.00;0.00;;;;;;;;;;1738424;28;20584;-80
2023/08/10 03:44:58;;;;;;;0.00;0.00;;;;;;;;;;1737751;28;20519;-80
2023/08/10 03:45:50;;;;;;;0.00;0.00;;;;;;;;;;1737093;28;20270;-79
2023/08/10 03:46:41;;;;;;;0.00;0.00;;;;;;;;;;1738279;28;20200;-79
2023/08/10 03:47:32;;;;;;;0.00;0.00;;;;;;;;;;1738614;28;20215;-79
2023/08/10 03:48:24;;;;;;;0.00;0.00;;;;;;;;;;1738709;28;20202;-79
2023/08/10 03:49:15;;;;;;;0.00;0.00;;;;;;;;;;1737376;28;20250;-80
2023/08/10 03:50:07;;;;;;;0.00;0.00;;;;;;;;;;1736665;28;20910;-79
2023/08/10 03:50:59;;;;;;;0.00;0.00;;;;;;;;;;1732459;28;20245;-79
2023/08/10 03:51:50;;;;;;;0.00;0.00;;;;;;;;;;1732548;28;20973;-79
2023/08/10 03:52:41;;;;;;;0.00;0.00;;;;;;;;;;1733684;28;20231;-79
2023/08/10 03:53:33;;;;;;;0.00;0.00;;;;;;;;;;1736043;28;20210;-79
2023/08/10 03:54:24;;;;;;;0.00;0.00;;;;;;;;;;1735562;28;20207;-79
2023/08/10 03:55:18;;;;;;;0.00;0.00;;;;;;;;;;1731689;28;20214;-79
2023/08/10 03:56:09;;;;;;;0.00;0.00;;;;;;;;;;1731339;28;20222;-79
2023/08/10 03:57:00;;;;;;;0.00;0.00;;;;;;;;;;1739380;28;20278;-79
2023/08/10 03:57:52;;;;;;;0.00;0.00;;;;;;;;;;1735358;28;20203;-79
2023/08/10 03:58:43;;;;;;;0.00;0.00;;;;;;;;;;1737765;28;20242;-79
2023/08/10 03:59:34;;;;;;;0.00;0.00;;;;;;;;;;1737295;28;20223;-79
2023/08/10 04:00:28;;;;;;;0.00;0.00;;;;;;;;;;1734510;28;20561;-79
2023/08/10 04:01:19;;;;;;;0.00;0.00;;;;;;;;;;1737648;28;20239;-79
2023/08/10 04:02:11;;;;;;;0.00;0.00;;;;;;;;;;1737349;28;20195;-79
2023/08/10 04:03:03;;;;;;;0.00;0.00;;;;;;;;;;1737191;28;20208;-79
2023/08/10 04:03:55;;;;;;;0.00;0.00;;;;;;;;;;1745322;28;20375;-79
2023/08/10 04:04:46;;;;;;;0.00;0.00;;;;;;;;;;1739349;28;20612;-79
2023/08/10 04:05:39;;;;;;;0.00;0.00;;;;;;;;;;1734693;28;20234;-79
2023/08/10 04:06:30;;;;;;;0.00;0.00;;;;;;;;;;1735000;28;20322;-79
2023/08/10 04:07:21;;;;;;;0.00;0.00;;;;;;;;;;1736054;28;20253;-79
2023/08/10 04:08:13;;;;;;;0.00;0.00;;;;;;;;;;1732485;28;20192;-79
2023/08/10 04:09:04;;;;;;;0.00;0.00;;;;;;;;;;1738292;28;20334;-79
2023/08/10 04:09:56;;;;;;;0.00;0.00;;;;;;;;;;1732508;28;20634;-79
2023/08/10 04:10:47;;;;;;;0.00;0.00;;;;;;;;;;1737283;28;20234;-78
2023/08/10 04:11:39;;;;;;;0.00;0.00;;;;;;;;;;1740132;28;21001;-79
2023/08/10 04:12:31;;;;;;;0.00;0.00;;;;;;;;;;1739879;28;20227;-78
2023/08/10 04:13:23;;;;;;;0.00;0.00;;;;;;;;;;1739757;28;20223;-78
2023/08/10 04:14:14;;;;;;;0.00;0.00;;;;;;;;;;1742331;28;20504;-78
2023/08/10 04:15:07;;;;;;;0.00;0.00;;;;;;;;;;1737404;28;20227;-78
2023/08/10 04:15:59;;;;;;;0.00;0.00;;;;;;;;;;1737430;28;20244;-78
2023/08/10 04:16:51;;;;;;;0.00;0.00;;;;;;;;;;1739259;28;20238;-78
2023/08/10 04:17:43;;;;;;;0.00;0.00;;;;;;;;;;1738242;28;20207;-78
2023/08/10 04:18:35;;;;;;;0.00;0.00;;;;;;;;;;1738012;28;20195;-79
2023/08/10 04:19:27;;;;;;;0.00;0.00;;;;;;;;;;1737897;28;20211;-78
2023/08/10 04:20:18;;;;;;;0.00;0.00;;;;;;;;;;1736497;28;20211;-78
2023/08/10 04:21:11;;;;;;;0.00;0.00;;;;;;;;;;1738295;28;20266;-78
2023/08/10 04:22:02;;;;;;;0.00;0.00;;;;;;;;;;1740648;28;20214;-78
2023/08/10 04:22:57;;;;;;;0.00;0.00;;;;;;;;;;1739413;28;20286;-78
2023/08/10 04:23:49;;;;;;;0.00;0.00;;;;;;;;;;1735283;28;20206;-78
2023/08/10 04:24:40;;;;;;;0.00;0.00;;;;;;;;;;1736004;28;20541;-78
2023/08/10 04:25:32;;;;;;;0.00;0.00;;;;;;;;;;1734712;28;20211;-78
2023/08/10 04:26:23;;;;;;;0.00;0.00;;;;;;;;;;1735220;28;20204;-78
2023/08/10 04:27:16;;;;;;;0.00;0.00;;;;;;;;;;1734695;28;20557;-78
2023/08/10 04:28:07;;;;;;;0.00;0.00;;;;;;;;;;1735061;28;20641;-78
2023/08/10 04:28:58;;;;;;;0.00;0.00;;;;;;;;;;1740776;28;20206;-78
2023/08/10 04:29:50;;;;;;;0.00;0.00;;;;;;;;;;1734550;28;20219;-78
2023/08/10 04:30:41;;;;;;;0.00;0.00;;;;;;;;;;1740375;28;20366;-78
2023/08/10 04:31:35;;;;;;;0.00;0.00;;;;;;;;;;1735169;28;20234;-78
2023/08/10 04:32:26;;;;;;;0.00;0.00;;;;;;;;;;1741051;28;20222;-80
2023/08/10 04:33:17;;;;;;;0.00;0.00;;;;;;;;;;1736822;28;20198;-79
2023/08/10 04:34:09;;;;;;;0.00;0.00;;;;;;;;;;1733705;28;20580;-79
2023/08/10 04:35:00;;;;;;;0.00;0.00;;;;;;;;;;1732217;28;20641;-79
2023/08/10 04:35:52;;;;;;;0.00;0.00;;;;;;;;;;1733012;28;20226;-79
2023/08/10 04:36:43;;;;;;;0.00;0.00;;;;;;;;;;1735043;28;21273;-79
2023/08/10 04:37:34;;;;;;;0.00;0.00;;;;;;;;;;1734044;28;20219;-79
2023/08/10 04:38:27;;;;;;;0.00;0.00;;;;;;;;;;1735119;28;20670;-79
2023/08/10 04:39:18;;;;;;;0.00;0.00;;;;;;;;;;1737464;28;20612;-79
2023/08/10 04:40:09;;;;;;;0.00;0.00;;;;;;;;;;1733953;28;20214;-79
2023/08/10 04:41:01;;;;;;;0.00;0.00;;;;;;;;;;1733098;28;20576;-79
2023/08/10 04:41:53;;;;;;;0.00;0.00;;;;;;;;;;1731223;28;20239;-79
2023/08/10 04:42:45;;;;;;;0.00;0.00;;;;;;;;;;1741154;28;20300;-79
2023/08/10 04:43:36;;;;;;;0.00;0.00;;;;;;;;;;1738723;28;20297;-79
2023/08/10 04:44:28;;;;;;;0.00;0.00;;;;;;;;;;1736938;28;20495;-79
2023/08/10 04:45:19;;;;;;;0.00;0.00;;;;;;;;;;1733458;28;20219;-79
2023/08/10 04:46:10;;;;;;;0.00;0.00;;;;;;;;;;1733674;28;20250;-79
2023/08/10 04:47:04;;;;;;;0.00;0.00;;;;;;;;;;1735177;28;20652;-79
2023/08/10 04:47:55;;;;;;;0.00;0.00;;;;;;;;;;1733388;28;20530;-79
2023/08/10 04:48:47;;;;;;;0.00;0.00;;;;;;;;;;1736816;28;20207;-79
2023/08/10 04:49:38;;;;;;;0.00;0.00;;;;;;;;;;1733853;28;20659;-79
2023/08/10 04:50:31;;;;;;;0.00;0.00;;;;;;;;;;1731108;28;20196;-79
2023/08/10 04:51:22;;;;;;;0.00;0.00;;;;;;;;;;1730294;28;20327;-80
2023/08/10 04:52:13;;;;;;;0.00;0.00;;;;;;;;;;1733968;28;20227;-79
2023/08/10 04:53:05;;;;;;;0.00;0.00;;;;;;;;;;1732553;28;20289;-79
2023/08/10 04:53:56;;;;;;;0.00;0.00;;;;;;;;;;1738718;28;20615;-79
2023/08/10 04:54:49;;;;;;;0.10;0.10;;;;;;;;;;1733542;28;20234;-79
2023/08/10 04:55:40;;;;;;;0.00;0.00;;;;;;;;;;1735178;28;20235;-79
2023/08/10 04:56:32;;;;;;;0.00;0.00;;;;;;;;;;1736756;28;20200;-79
2023/08/10 04:57:23;;;;;;;0.00;0.00;;;;;;;;;;1734649;28;20246;-79
2023/08/10 04:58:15;;;;;;;0.00;0.00;;;;;;;;;;1732788;28;20242;-79
2023/08/10 04:59:07;;;;;;;0.00;0.00;;;;;;;;;;1734960;28;20222;-79
2023/08/10 04:59:58;;;;;;;0.00;0.00;;;;;;;;;;1736183;28;20536;-79
2023/08/10 05:00:52;;;;;;;0.00;0.00;;;;;;;;;;1735634;28;20699;-79
2023/08/10 05:01:43;;;;;;;0.00;0.00;;;;;;;;;;1734514;28;20669;-80
2023/08/10 05:02:38;;;;;;;0.00;0.00;;;;;;;;;;1734866;28;20660;-80
2023/08/10 05:03:29;;;;;;;0.00;0.00;;;;;;;;;;1735495;28;20545;-80
2023/08/10 05:04:21;;;;;;;0.00;0.00;;;;;;;;;;1736692;28;20207;-80
2023/08/10 05:05:12;;;;;;;0.00;0.00;;;;;;;;;;1732375;28;20208;-80
2023/08/10 05:06:04;;;;;;;0.00;0.00;;;;;;;;;;1732416;28;20243;-80
2023/08/10 05:06:55;;;;;;;0.00;0.00;;;;;;;;;;1735136;28;20240;-80
2023/08/10 05:07:47;;;;;;;0.00;0.00;;;;;;;;;;1733486;28;20212;-80
2023/08/10 05:08:38;;;;;;;0.00;0.00;;;;;;;;;;1736470;28;20598;-80
2023/08/10 05:09:29;;;;;;;0.00;0.00;;;;;;;;;;1733740;28;20246;-80
2023/08/10 05:10:22;;;;;;;0.00;0.00;;;;;;;;;;1734214;28;20314;-80
2023/08/10 05:11:13;;;;;;;0.00;0.00;;;;;;;;;;1741703;28;20661;-80